Time;durP1;ratioP1;P1;durP2;ratioP2;P2;SDS_P1;SDS_P2;PMS_P1;PMS_P2;Temp;Humidity;BMP_temperature;BMP_pressure;BME280_temperature;BME280_humidity;BME280_pressure;Samples;Min_cycle;Max_cycle;Signal;HPM_P1;HPM_P2
2023/01/29 08:23:25;;;;;;;;;;;;;;;3.09;49.43;99244.66;5024420;23;19927;-65
2023/01/29 08:25:50;;;;;;;;;;;;;;;2.46;50.64;99242.53;4931092;29;19998;-64
2023/01/29 08:28:15;;;;;;;;;;;;;;;1.98;51.58;99242.53;4932899;29;19961;-64
2023/01/29 08:30:40;;;;;;;;;;;;;;;1.60;52.91;99248.34;4932591;29;19962;-63
2023/01/29 08:33:05;;;;;;;;;;;;;;;0.95;53.68;99248.44;4932806;29;19965;-64
2023/01/29 08:35:31;;;;;;;;;;;;;;;0.73;54.88;99249.59;4930535;29;19926;-64
2023/01/29 08:37:59;;;;;;;;;;;;;;;0.48;55.73;99242.09;4930469;29;19926;-63
2023/01/29 08:40:24;;;;;;;;;;;;;;;0.39;55.86;99247.38;4925124;29;20038;-63
2023/01/29 08:42:50;;;;;;;;;;;;;;;0.36;56.94;99252.59;4932579;29;20410;-64
2023/01/29 08:45:15;;;;;;;;;;;;;;;0.31;56.75;99254.34;4933138;29;19919;-63
2023/01/29 08:47:44;;;;;;;;;;;;;;;0.25;57.12;99252.69;4932207;29;19918;-63
2023/01/29 08:50:09;;;;;;;;;;;;;;;0.29;56.77;99262.13;4946194;29;19915;-63
2023/01/29 08:52:35;;;;;;;;;;;;;;;0.35;57.07;99256.03;4933304;29;19926;-63
2023/01/29 08:55:00;;;;;;;;;;;;;;;0.37;57.03;99257.72;4933447;29;20306;-64
2023/01/29 08:57:25;;;;;;;;;;;;;;;0.39;56.78;99268.03;4933100;29;20276;-64
2023/01/29 08:59:50;;;;;;;;;;;;;;;0.42;56.84;99255.94;4934707;29;19915;-64
2023/01/29 09:02:16;;;;;;;;;;;;;;;0.39;56.77;99255.97;4933582;29;19969;-63
2023/01/29 09:04:41;;;;;;;;;;;;;;;0.41;57.22;99255.94;4933738;29;19914;-64
2023/01/29 09:07:06;;;;;;;;;;;;;;;0.54;56.68;99254.94;4933129;29;19919;-63
2023/01/29 09:09:31;;;;;;;;;;;;;;;0.43;55.80;99249.91;4931757;29;19941;-62
2023/01/29 09:11:56;;;;;;;;;;;;;;;0.52;56.04;99251.56;4933584;29;19918;-64
2023/01/29 09:14:22;;;;;;;;;;;;;;;0.45;55.95;99252.50;4932965;29;19962;-64
2023/01/29 09:16:47;;;;;;;;;;;;;;;0.45;56.11;99253.34;4933480;29;19919;-64
2023/01/29 09:19:12;;;;;;;;;;;;;;;0.44;55.72;99254.19;4934721;29;19929;-64
2023/01/29 09:21:37;;;;;;;;;;;;;;;0.32;56.26;99251.75;4937657;29;19918;-64
2023/01/29 09:24:03;;;;;;;;;;;;;;;0.35;55.63;99256.03;4938201;29;19926;-64
2023/01/29 09:26:28;;;;;;;;;;;;;;;0.44;56.13;99261.09;4937081;29;19954;-64
2023/01/29 09:28:53;;;;;;;;;;;;;;;0.36;55.00;99262.91;4937469;29;20366;-64
2023/01/29 09:31:19;;;;;;;;;;;;;;;-0.22;56.47;99256.56;4949635;29;20363;-64
2023/01/29 09:33:44;;;;;;;;;;;;;;;-0.02;56.72;99253.81;4939418;29;20302;-64
2023/01/29 09:36:09;;;;;;;;;;;;;;;0.18;56.91;99249.31;4936835;29;19997;-64
2023/01/29 09:38:34;;;;;;;;;;;;;;;0.31;56.10;99246.59;4937317;29;19966;-64
2023/01/29 09:41:08;;;;;;;;;;;;;;;0.50;56.25;99232.63;4937643;29;19962;-64
2023/01/29 09:43:41;;;;;;;;;;;;;;;0.54;55.89;99242.03;4934562;29;19922;-64
2023/01/29 09:46:12;;;;;;;;;;;;;;;0.62;55.54;99232.50;4934424;29;20367;-64
2023/01/29 09:48:37;;;;;;;;;;;;;;;0.63;55.10;99234.19;4929847;29;19919;-64
2023/01/29 09:51:04;;;;;;;;;;;;;;;0.62;54.98;99229.03;4930827;29;20302;-63
2023/01/29 09:53:50;;;;;;;;;;;;;;;0.48;54.35;99226.63;4933546;29;19918;-64
2023/01/29 09:56:18;;;;;;;;;;;;;;;0.61;54.08;99217.84;4928853;29;19919;-64
2023/01/29 09:58:43;;;;;;;;;;;;;;;0.82;54.65;99214.16;4933303;29;19950;-64
2023/01/29 10:01:43;;;;;;;;;;;;;;;0.91;54.35;99215.75;4933180;29;19923;-64
2023/01/29 10:04:32;;;;;;;;;;;;;;;0.92;54.24;99214.88;4875714;29;19919;-64
2023/01/29 10:07:07;;;;;;;;;;;;;;;0.93;54.23;99212.28;4945593;28;19926;-63
2023/01/29 10:09:35;;;;;;;;;;;;;;;0.85;53.79;99205.50;4933264;29;20010;-63
2023/01/29 10:12:19;;;;;;;;;;;;;;;0.90;53.81;99217.50;4932733;29;19926;-64
2023/01/29 10:14:59;;;;;;;;;;;;;;;0.95;54.32;99207.94;4934446;29;19919;-64
2023/01/29 10:17:41;;;;;;;;;;;;;;;1.13;53.86;99214.56;4933066;29;19918;-64
2023/01/29 10:20:15;;;;;;;;;;;;;;;0.94;53.25;99226.06;4932590;29;19919;-64
2023/01/29 10:22:43;;;;;;;;;;;;;;;0.80;54.42;99238.31;4934282;29;19923;-64
2023/01/29 10:25:09;;;;;;;;;;;;;;;0.47;54.86;99230.06;4931072;29;19925;-64
2023/01/29 10:27:37;;;;;;;;;;;;;;;0.26;54.70;99227.75;4940645;29;20302;-64
2023/01/29 10:30:03;;;;;;;;;;;;;;;0.50;55.35;99214.56;4947872;29;19958;-64
2023/01/29 10:32:28;;;;;;;;;;;;;;;0.77;54.55;99212.53;4933206;29;19962;-64
2023/01/29 10:35:01;;;;;;;;;;;;;;;0.89;53.76;99218.34;4931665;29;19922;-64
2023/01/29 10:37:37;;;;;;;;;;;;;;;1.06;53.84;99223.28;4930511;29;19942;-63
2023/01/29 10:40:10;;;;;;;;;;;;;;;1.03;53.99;99225.91;4933287;29;19997;-64
2023/01/29 10:42:38;;;;;;;;;;;;;;;1.13;53.90;99231.81;4932434;29;19949;-64
2023/01/29 10:45:16;;;;;;;;;;;;;;;1.19;54.08;99237.75;4934335;29;19919;-64
2023/01/29 10:48:14;;;;;;;;;;;;;;;1.38;53.60;99232.34;4932419;29;20009;-64
2023/01/29 10:50:46;;;;;;;;;;;;;;;1.27;53.41;99245.38;4905488;28;20001;-64
2023/01/29 10:53:14;;;;;;;;;;;;;;;1.06;53.93;99240.53;4931092;29;20295;-64
2023/01/29 10:55:42;;;;;;;;;;;;;;;1.12;53.60;99223.22;4935593;29;19919;-65
2023/01/29 10:58:15;;;;;;;;;;;;;;;1.28;53.47;99210.09;4933025;29;20413;-65
2023/01/29 11:00:40;;;;;;;;;;;;;;;1.42;53.02;99218.47;4937074;29;19918;-65
2023/01/29 11:03:11;;;;;;;;;;;;;;;1.61;52.56;99206.94;4934975;29;20294;-65
2023/01/29 11:05:39;;;;;;;;;;;;;;;1.78;52.11;99201.50;4934009;29;19915;-64
2023/01/29 11:08:06;;;;;;;;;;;;;;;1.78;51.68;99192.88;4933494;29;19923;-65
2023/01/29 11:10:32;;;;;;;;;;;;;;;1.71;51.76;99186.97;4932617;29;19918;-64
2023/01/29 11:12:57;;;;;;;;;;;;;;;1.74;52.05;99180.88;4933865;29;20040;-64
2023/01/29 11:15:23;;;;;;;;;;;;;;;1.74;52.04;99171.38;4934394;29;19960;-65
2023/01/29 11:18:02;;;;;;;;;;;;;;;1.75;51.62;99172.22;4932694;29;19929;-65
2023/01/29 11:20:28;;;;;;;;;;;;;;;1.71;51.84;99162.81;4934209;29;19919;-65
2023/01/29 11:22:54;;;;;;;;;;;;;;;1.74;51.80;99166.22;4933310;29;20408;-65
2023/01/29 11:25:19;;;;;;;;;;;;;;;1.72;51.86;99154.19;4935787;29;20409;-65
2023/01/29 11:27:48;;;;;;;;;;;;;;;1.79;52.45;99143.72;4933650;29;20017;-65
2023/01/29 11:30:14;;;;;;;;;;;;;;;1.79;51.97;99140.25;4933676;29;20413;-65
2023/01/29 11:32:39;;;;;;;;;;;;;;;1.79;51.91;99137.66;4929149;29;20291;-65
2023/01/29 11:35:11;;;;;;;;;;;;;;;1.79;52.22;99127.31;4933886;29;20417;-64
2023/01/29 11:37:37;;;;;;;;;;;;;;;1.71;52.34;99124.88;4935256;29;19966;-65
2023/01/29 11:40:17;;;;;;;;;;;;;;;1.83;52.30;99116.06;4932312;29;19961;-64
2023/01/29 11:42:42;;;;;;;;;;;;;;;1.94;51.98;99114.13;4929032;29;20065;-65
2023/01/29 11:45:26;;;;;;;;;;;;;;;2.07;51.20;99102.66;4935343;29;20311;-65
2023/01/29 11:47:52;;;;;;;;;;;;;;;2.17;51.29;99107.63;4933496;29;20394;-65
2023/01/29 11:50:28;;;;;;;;;;;;;;;2.02;50.86;99104.47;4946922;29;20383;-65
2023/01/29 11:52:53;;;;;;;;;;;;;;;2.08;51.11;99096.56;4937773;28;19936;-65
2023/01/29 11:55:20;;;;;;;;;;;;;;;2.16;50.89;99095.56;4929248;29;20485;-65
2023/01/29 11:57:45;;;;;;;;;;;;;;;2.25;51.20;99095.38;4933767;29;20468;-65
2023/01/29 12:00:20;;;;;;;;;;;;;;;1.88;51.41;99099.56;4932255;29;20081;-64
2023/01/29 12:02:46;;;;;;;;;;;;;;;1.84;51.93;99091.88;4932389;29;20713;-65
2023/01/29 12:05:21;;;;;;;;;;;;;;;2.13;51.82;99094.75;4925715;29;20062;-65
2023/01/29 12:07:52;;;;;;;;;;;;;;;2.26;51.00;99084.13;4918012;29;19918;-65
2023/01/29 12:10:30;;;;;;;;;;;;;;;2.42;51.21;99070.00;4934670;29;19925;-63
2023/01/29 12:13:06;;;;;;;;;;;;;;;2.60;50.87;99061.81;4930138;29;19926;-63
2023/01/29 12:15:31;;;;;;;;;;;;;;;2.79;49.90;99062.25;4929786;29;20052;-62
2023/01/29 12:17:59;;;;;;;;;;;;;;;2.84;49.40;99062.13;4932160;29;19935;-62
2023/01/29 12:20:26;;;;;;;;;;;;;;;3.03;49.49;99063.41;4934221;29;20441;-62
2023/01/29 12:22:52;;;;;;;;;;;;;;;3.05;48.83;99053.81;4929786;29;19927;-63
2023/01/29 12:25:43;;;;;;;;;;;;;;;2.99;48.79;99053.97;4932132;29;20400;-63
2023/01/29 12:28:15;;;;;;;;;;;;;;;2.76;48.51;99048.50;4939904;29;20002;-63
2023/01/29 12:30:45;;;;;;;;;;;;;;;2.81;49.52;99041.47;4932576;29;19946;-62
2023/01/29 12:33:12;;;;;;;;;;;;;;;2.70;49.57;99040.88;4931193;29;20405;-63
2023/01/29 12:35:41;;;;;;;;;;;;;;;2.91;49.59;99037.78;4924638;29;19925;-64
2023/01/29 12:38:13;;;;;;;;;;;;;;;2.85;49.18;99041.34;4931100;29;19930;-64
2023/01/29 12:40:49;;;;;;;;;;;;;;;2.27;50.22;99039.25;4915695;29;19927;-63
2023/01/29 12:43:20;;;;;;;;;;;;;;;2.09;50.92;99031.00;4930450;29;19919;-63
2023/01/29 12:45:46;;;;;;;;;;;;;;;2.07;51.12;99022.41;4930885;29;20015;-64
2023/01/29 12:48:13;;;;;;;;;;;;;;;2.21;51.12;99013.50;4933011;29;19952;-63
2023/01/29 12:50:38;;;;;;;;;;;;;;;2.33;50.94;99008.03;4932286;29;20333;-64
2023/01/29 12:53:12;;;;;;;;;;;;;;;2.73;50.61;99009.72;4943619;29;19923;-65
2023/01/29 12:55:37;;;;;;;;;;;;;;;3.15;50.34;99004.34;4933797;29;20498;-64
2023/01/29 12:58:03;;;;;;;;;;;;;;;3.42;49.79;98998.44;4936463;29;20251;-63
2023/01/29 13:00:32;;;;;;;;;;;;;;;3.23;48.63;98995.47;4920895;29;19915;-63
2023/01/29 13:02:57;;;;;;;;;;;;;;;3.32;48.52;98990.06;4935596;29;20382;-63
2023/01/29 13:05:27;;;;;;;;;;;;;;;3.59;48.19;98984.16;4936832;29;20013;-64
2023/01/29 13:07:56;;;;;;;;;;;;;;;3.69;47.54;98990.81;4929929;29;20582;-66
2023/01/29 13:10:23;;;;;;;;;;;;;;;3.53;47.94;98986.03;4926170;29;19925;-66
2023/01/29 13:13:00;;;;;;;;;;;;;;;3.62;47.39;99004.84;4930614;29;19919;-63
2023/01/29 13:15:31;;;;;;;;;;;;;;;3.87;47.38;99003.25;4947745;29;19923;-64
2023/01/29 13:18:15;;;;;;;;;;;;;;;3.96;47.67;98990.00;4935807;29;20021;-64
2023/01/29 13:20:40;;;;;;;;;;;;;;;3.83;47.13;98996.44;4933096;29;20386;-64
2023/01/29 13:23:14;;;;;;;;;;;;;;;3.58;48.51;98988.50;4935147;29;19919;-64
2023/01/29 13:25:39;;;;;;;;;;;;;;;3.44;48.19;98996.66;4936479;29;19921;-64
2023/01/29 13:28:05;;;;;;;;;;;;;;;3.37;48.58;98996.84;4926607;29;19919;-65
2023/01/29 13:30:30;;;;;;;;;;;;;;;3.28;48.63;98996.22;4934338;29;19926;-65
2023/01/29 13:33:07;;;;;;;;;;;;;;;3.26;49.00;98994.53;4934902;29;20455;-65
2023/01/29 13:35:32;;;;;;;;;;;;;;;3.24;49.13;98993.75;4935141;29;20287;-63
2023/01/29 13:37:57;;;;;;;;;;;;;;;3.21;49.35;98988.66;4927454;29;19938;-66
2023/01/29 13:40:26;;;;;;;;;;;;;;;2.85;50.58;98980.91;4934197;29;20394;-65
2023/01/29 13:42:53;;;;;;;;;;;;;;;2.80;50.27;98978.44;4938003;28;19942;-65
2023/01/29 13:45:18;;;;;;;;;;;;;;;2.87;50.16;98978.28;4935698;29;19915;-65
2023/01/29 13:47:43;;;;;;;;;;;;;;;2.85;50.28;98973.13;4936090;29;20386;-65
2023/01/29 13:50:20;;;;;;;;;;;;;;;2.90;50.16;98960.94;4939177;29;19926;-65
2023/01/29 13:52:55;;;;;;;;;;;;;;;2.95;50.05;98968.56;4932758;29;19974;-64
2023/01/29 13:55:21;;;;;;;;;;;;;;;2.97;50.73;98970.25;4933884;29;19973;-65
2023/01/29 13:57:46;;;;;;;;;;;;;;;3.13;50.09;98969.84;4936421;29;19922;-65
2023/01/29 14:00:20;;;;;;;;;;;;;;;3.21;49.85;98965.31;4932868;29;19923;-65
2023/01/29 14:03:10;;;;;;;;;;;;;;;3.39;49.85;98969.16;4935407;29;19919;-63
2023/01/29 14:05:39;;;;;;;;;;;;;;;3.53;49.30;98962.69;4933428;29;20326;-65
2023/01/29 14:08:07;;;;;;;;;;;;;;;3.67;48.95;98964.03;4934015;29;19926;-63
2023/01/29 14:10:32;;;;;;;;;;;;;;;3.80;48.75;98971.41;4935609;29;20382;-63
2023/01/29 14:13:00;;;;;;;;;;;;;;;4.01;48.87;98971.69;4932885;29;19923;-62
2023/01/29 14:15:34;;;;;;;;;;;;;;;3.72;49.02;98968.22;4934332;29;20010;-62
2023/01/29 14:18:04;;;;;;;;;;;;;;;3.89;48.04;98980.69;4931747;29;19931;-62
2023/01/29 14:20:31;;;;;;;;;;;;;;;3.99;48.35;98981.25;4936117;29;20002;-64
2023/01/29 14:22:58;;;;;;;;;;;;;;;4.05;47.90;98966.34;4926174;29;19919;-63
2023/01/29 14:25:26;;;;;;;;;;;;;;;4.16;49.52;98955.63;4927088;29;19919;-63
2023/01/29 14:27:52;;;;;;;;;;;;;;;4.23;47.59;98951.09;4932466;29;20271;-63
2023/01/29 14:30:17;;;;;;;;;;;;;;;4.29;48.49;98950.91;4934182;29;19919;-62
2023/01/29 14:32:45;;;;;;;;;;;;;;;4.31;47.83;98945.69;4934269;29;19922;-63
2023/01/29 14:35:40;;;;;;;;;;;;;;;4.23;47.71;98940.72;4931824;29;19919;-63
2023/01/29 14:38:05;;;;;;;;;;;;;;;4.10;48.74;98942.03;4893606;29;20038;-64
2023/01/29 14:40:30;;;;;;;;;;;;;;;4.18;48.33;98942.63;4893926;29;20577;-65
2023/01/29 14:43:02;;;;;;;;;;;;;;;4.20;48.57;98941.69;4876374;29;19924;-63
2023/01/29 14:45:28;;;;;;;;;;;;;;;3.99;48.51;98943.19;4893321;29;20276;-63
2023/01/29 14:47:54;;;;;;;;;;;;;;;3.90;49.13;98938.28;4877065;29;19938;-63
2023/01/29 14:50:28;;;;;;;;;;;;;;;3.79;49.62;98946.38;4894884;29;19926;-63
2023/01/29 14:53:08;;;;;;;;;;;;;;;3.78;49.76;98949.00;4894999;29;19915;-64
2023/01/29 14:55:40;;;;;;;;;;;;;;;3.56;49.68;98944.44;4895091;29;19923;-63
2023/01/29 14:58:08;;;;;;;;;;;;;;;3.49;50.09;98942.91;4884230;29;19966;-63
2023/01/29 15:00:35;;;;;;;;;;;;;;;3.32;50.64;98935.59;4878810;29;19937;-63
2023/01/29 15:03:00;;;;;;;;;;;;;;;3.16;50.95;98936.06;4901987;29;20391;-64
2023/01/29 15:05:28;;;;;;;;;;;;;;;2.95;51.89;98943.50;4879440;29;19944;-63
2023/01/29 15:07:59;;;;;;;;;;;;;;;2.94;52.00;98939.22;4877463;29;19919;-63
2023/01/29 15:10:34;;;;;;;;;;;;;;;3.00;52.65;98933.03;4886948;29;19928;-63
2023/01/29 15:13:00;;;;;;;;;;;;;;;2.97;52.64;98933.97;4879430;29;20371;-63
2023/01/29 15:15:26;;;;;;;;;;;;;;;2.91;52.16;98923.75;4923266;29;19919;-63
2023/01/29 15:17:53;;;;;;;;;;;;;;;2.80;52.65;98925.78;4932921;29;19922;-62
2023/01/29 15:20:29;;;;;;;;;;;;;;;2.69;52.77;98927.81;4932829;29;19919;-63
2023/01/29 15:22:54;;;;;;;;;;;;;;;2.55;53.40;98923.81;4934016;29;19923;-63
2023/01/29 15:25:20;;;;;;;;;;;;;;;2.40;53.71;98923.31;4932766;29;20179;-64
2023/01/29 15:27:45;;;;;;;;;;;;;;;2.43;54.00;98920.66;4933245;29;20400;-63
2023/01/29 15:30:17;;;;;;;;;;;;;;;2.38;54.05;98918.19;4931020;29;19919;-63
2023/01/29 15:32:43;;;;;;;;;;;;;;;2.29;54.31;98918.41;4933173;29;19923;-63
2023/01/29 15:35:09;;;;;;;;;;;;;;;2.17;54.80;98921.25;4933084;29;19919;-62
2023/01/29 15:37:34;;;;;;;;;;;;;;;2.14;55.07;98917.88;4934482;29;20306;-63
2023/01/29 15:40:00;;;;;;;;;;;;;;;2.04;55.39;98913.81;4933007;29;19918;-63
2023/01/29 15:42:28;;;;;;;;;;;;;;;1.96;55.71;98920.91;4932624;29;20268;-63
2023/01/29 15:44:53;;;;;;;;;;;;;;;1.98;56.20;98916.53;4933535;29;19966;-63
2023/01/29 15:47:20;;;;;;;;;;;;;;;1.85;56.24;98907.31;4932354;29;19923;-63
2023/01/29 15:49:45;;;;;;;;;;;;;;;1.84;56.54;98900.47;4933579;29;19922;-63
2023/01/29 15:52:15;;;;;;;;;;;;;;;1.71;56.39;98904.19;4933675;29;19942;-63
2023/01/29 15:54:40;;;;;;;;;;;;;;;1.60;56.74;98910.44;4933607;29;19919;-63
2023/01/29 15:57:05;;;;;;;;;;;;;;;1.51;57.12;98918.38;4932750;29;19915;-63
2023/01/29 15:59:34;;;;;;;;;;;;;;;1.42;57.67;98916.00;4931393;29;19933;-63
2023/01/29 16:02:29;;;;;;;;;;;;;;;1.35;58.09;98922.19;4916385;29;20280;-62
2023/01/29 16:04:54;;;;;;;;;;;;;;;1.26;58.29;98917.19;4925362;29;19915;-63
2023/01/29 16:07:19;;;;;;;;;;;;;;;1.18;59.10;98920.78;4932645;29;19919;-63
2023/01/29 16:09:45;;;;;;;;;;;;;;;1.17;58.81;98919.09;4931071;29;20013;-64
2023/01/29 16:12:11;;;;;;;;;;;;;;;1.15;59.01;98917.41;4916475;29;19919;-64
2023/01/29 16:14:36;;;;;;;;;;;;;;;1.10;59.49;98914.91;4932487;29;19914;-64
2023/01/29 16:17:20;;;;;;;;;;;;;;;1.06;59.87;98915.84;4930876;29;20041;-64
2023/01/29 16:19:45;;;;;;;;;;;;;;;0.99;59.65;98913.41;4927217;29;19919;-61
2023/01/29 16:22:10;;;;;;;;;;;;;;;0.90;59.77;98909.28;4922256;29;19918;-64
2023/01/29 16:24:35;;;;;;;;;;;;;;;0.87;60.04;98902.44;4932986;29;19958;-63
2023/01/29 16:27:02;;;;;;;;;;;;;;;0.82;60.63;98898.22;4927423;29;19923;-63
2023/01/29 16:29:31;;;;;;;;;;;;;;;0.73;61.37;98900.97;4921638;29;20112;-64
2023/01/29 16:31:59;;;;;;;;;;;;;;;0.64;61.96;98908.00;4934964;29;20013;-64
2023/01/29 16:34:37;;;;;;;;;;;;;;;0.60;62.12;98901.19;4934509;29;19962;-64
2023/01/29 16:37:03;;;;;;;;;;;;;;;0.54;62.89;98906.44;4933709;29;20399;-64
2023/01/29 16:39:31;;;;;;;;;;;;;;;0.49;62.82;98897.94;4934095;29;19922;-64
2023/01/29 16:42:09;;;;;;;;;;;;;;;0.45;63.16;98899.72;4935617;29;19925;-65
2023/01/29 16:44:35;;;;;;;;;;;;;;;0.38;63.52;98899.81;4938231;29;20732;-64
2023/01/29 16:47:11;;;;;;;;;;;;;;;0.33;63.38;98902.50;4935843;29;19993;-63
2023/01/29 16:49:36;;;;;;;;;;;;;;;0.31;63.45;98903.38;4934046;29;19965;-64
2023/01/29 16:52:14;;;;;;;;;;;;;;;0.23;64.17;98900.94;4935918;29;20006;-64
2023/01/29 16:54:40;;;;;;;;;;;;;;;0.13;63.83;98900.22;4938079;29;19915;-64
2023/01/29 16:57:10;;;;;;;;;;;;;;;0.08;63.96;98898.59;4935614;29;19925;-64
2023/01/29 16:59:35;;;;;;;;;;;;;;;0.02;64.26;98894.38;4948942;29;19927;-65
2023/01/29 17:02:01;;;;;;;;;;;;;;;3.07;78.21;98883.59;4917133;29;19927;-63
2023/01/29 17:04:26;;;;;;;;;;;;;;;2.08;63.08;98888.69;4933945;29;19977;-64
2023/01/29 17:06:55;;;;;;;;;;;;;;;1.50;61.40;98890.84;4933010;29;19919;-64
2023/01/29 17:09:21;;;;;;;;;;;;;;;1.05;61.62;98893.47;4934340;29;19943;-64
2023/01/29 17:11:49;;;;;;;;;;;;;;;0.77;62.66;98887.13;4933986;29;19927;-64
2023/01/29 17:14:16;;;;;;;;;;;;;;;0.55;63.34;98887.53;4936424;29;19954;-64
2023/01/29 17:17:00;;;;;;;;;;;;;;;0.45;63.47;98891.13;4934129;29;19925;-63
2023/01/29 17:19:25;;;;;;;;;;;;;;;0.31;64.04;98888.78;4936153;29;19923;-63
2023/01/29 17:21:50;;;;;;;;;;;;;;;0.21;64.44;98882.06;4936204;29;19919;-63
2023/01/29 17:24:15;;;;;;;;;;;;;;;0.10;65.55;98889.94;4936413;29;19919;-64
2023/01/29 17:26:41;;;;;;;;;;;;;;;0.01;65.58;98887.53;4936538;29;19914;-64
2023/01/29 17:29:09;;;;;;;;;;;;;;;-0.10;65.91;98879.09;4936885;29;20391;-64
2023/01/29 17:31:34;;;;;;;;;;;;;;;-0.14;66.32;98874.84;4934143;29;19922;-64
2023/01/29 17:34:00;;;;;;;;;;;;;;;-0.22;66.98;98871.53;4937256;29;19914;-63
2023/01/29 17:36:25;;;;;;;;;;;;;;;-0.29;66.53;98861.31;4936782;29;19925;-64
2023/01/29 17:38:50;;;;;;;;;;;;;;;-0.33;67.15;98863.97;4932361;29;19922;-63
2023/01/29 17:41:21;;;;;;;;;;;;;;;-0.35;67.68;98866.53;4934731;29;19930;-64
2023/01/29 17:43:46;;;;;;;;;;;;;;;-0.41;68.18;98874.41;4933808;29;19919;-63
2023/01/29 17:46:12;;;;;;;;;;;;;;;-0.44;67.07;98877.00;4934872;29;19939;-63
2023/01/29 17:48:38;;;;;;;;;;;;;;;-0.43;67.34;98877.84;4935704;29;19922;-63
2023/01/29 17:51:03;;;;;;;;;;;;;;;-0.44;67.70;98871.00;4935009;29;19918;-64
2023/01/29 17:53:28;;;;;;;;;;;;;;;-0.49;67.76;98874.47;4937426;29;19937;-63
2023/01/29 17:55:53;;;;;;;;;;;;;;;-0.51;68.06;98868.50;4935328;29;20133;-63
2023/01/29 17:58:19;;;;;;;;;;;;;;;-0.54;68.96;98865.13;4934503;29;19930;-64
2023/01/29 18:00:45;;;;;;;;;;;;;;;-0.57;69.00;98885.78;4939406;29;20386;-64
2023/01/29 18:03:10;;;;;;;;;;;;;;;-0.57;68.64;98880.63;4935683;29;19923;-64
2023/01/29 18:05:35;;;;;;;;;;;;;;;-0.60;68.34;98889.22;4935682;29;19926;-63
2023/01/29 18:08:01;;;;;;;;;;;;;;;-0.60;69.00;98885.81;4937084;29;19914;-63
2023/01/29 18:10:26;;;;;;;;;;;;;;;-0.64;69.02;98885.00;4914509;29;19919;-63
2023/01/29 18:12:51;;;;;;;;;;;;;;;-0.67;68.48;98891.91;4934109;29;19923;-61
2023/01/29 18:15:16;;;;;;;;;;;;;;;-0.67;68.61;98886.75;4929378;29;19919;-63
2023/01/29 18:17:42;;;;;;;;;;;;;;;-0.66;69.45;98891.03;4933428;29;19925;-64
2023/01/29 18:20:15;;;;;;;;;;;;;;;-0.65;68.83;98890.19;4936590;29;19958;-64
2023/01/29 18:22:40;;;;;;;;;;;;;;;-0.65;69.15;98891.03;4934419;29;19922;-63
2023/01/29 18:25:05;;;;;;;;;;;;;;;-0.65;69.02;98897.91;4935485;29;20326;-64
2023/01/29 18:27:31;;;;;;;;;;;;;;;-0.68;69.21;98893.63;4936421;29;20286;-64
2023/01/29 18:29:56;;;;;;;;;;;;;;;-0.69;69.29;98899.63;4936571;29;19946;-64
2023/01/29 18:32:21;;;;;;;;;;;;;;;-0.71;69.57;98891.09;4935294;29;20018;-64
2023/01/29 18:34:46;;;;;;;;;;;;;;;-0.72;69.57;98891.97;4934500;29;19998;-63
2023/01/29 18:37:11;;;;;;;;;;;;;;;-0.75;69.39;98892.84;4935357;29;20058;-65
2023/01/29 18:39:37;;;;;;;;;;;;;;;-0.78;68.81;98895.47;4936682;29;20005;-64
2023/01/29 18:42:02;;;;;;;;;;;;;;;-0.83;69.31;98889.50;4935468;29;19919;-64
2023/01/29 18:44:28;;;;;;;;;;;;;;;-0.84;69.85;98892.97;4934588;29;19934;-63
2023/01/29 18:46:53;;;;;;;;;;;;;;;-0.87;69.30;98897.28;4935333;29;20402;-63
2023/01/29 18:49:18;;;;;;;;;;;;;;;-0.90;69.46;98893.03;4936207;29;19915;-62
2023/01/29 18:51:44;;;;;;;;;;;;;;;-1.01;69.45;98898.28;4934667;29;19926;-62
2023/01/29 18:54:10;;;;;;;;;;;;;;;-0.99;70.07;98899.16;4936222;29;19915;-62
2023/01/29 18:56:35;;;;;;;;;;;;;;;-1.02;69.70;98903.47;4934765;29;19922;-62
2023/01/29 18:59:01;;;;;;;;;;;;;;;-1.05;70.80;98903.50;4935350;29;20010;-62
2023/01/29 19:01:26;;;;;;;;;;;;;;;-1.08;70.50;98899.22;4935578;29;20014;-63
2023/01/29 19:03:51;;;;;;;;;;;;;;;-1.09;71.12;98902.69;4935105;29;20001;-62
2023/01/29 19:06:16;;;;;;;;;;;;;;;-1.08;70.97;98898.38;4935432;29;19919;-63
2023/01/29 19:08:42;;;;;;;;;;;;;;;-1.11;70.23;98903.56;4933133;29;19926;-63
2023/01/29 19:11:08;;;;;;;;;;;;;;;-1.15;70.74;98901.91;4936029;29;20295;-63
2023/01/29 19:13:34;;;;;;;;;;;;;;;0.06;85.48;98903.78;4934714;29;19919;-63
2023/01/29 19:15:59;;;;;;;;;;;;;;;-0.19;74.82;98899.88;4934215;29;19931;-63
2023/01/29 19:18:25;;;;;;;;;;;;;;;-0.51;70.17;98896.00;4933035;29;19927;-63
2023/01/29 19:20:50;;;;;;;;;;;;;;;-0.67;69.13;98903.06;4930049;29;19930;-63
2023/01/29 19:23:15;;;;;;;;;;;;;;;-0.81;69.62;98903.22;4937843;29;19985;-63
2023/01/29 19:25:41;;;;;;;;;;;;;;;-0.91;69.41;98904.19;4935518;29;19915;-63
2023/01/29 19:28:06;;;;;;;;;;;;;;;-1.09;70.19;98897.53;4930799;29;19930;-63
2023/01/29 19:30:31;;;;;;;;;;;;;;;-1.23;70.35;98892.53;4934747;29;19919;-63
2023/01/29 19:32:56;;;;;;;;;;;;;;;-1.32;70.53;98895.19;4925400;29;19923;-62
2023/01/29 19:35:22;;;;;;;;;;;;;;;-1.39;71.32;98890.97;4935669;29;19914;-63
2023/01/29 19:37:47;;;;;;;;;;;;;;;-1.47;70.80;98890.19;4935317;29;20368;-63
2023/01/29 19:40:14;;;;;;;;;;;;;;;-1.51;71.61;98896.25;4934442;29;20215;-63
2023/01/29 19:42:40;;;;;;;;;;;;;;;-1.52;71.75;98886.81;4932991;29;20025;-62
2023/01/29 19:45:05;;;;;;;;;;;;;;;-1.49;71.87;98881.63;4931883;29;20302;-62
2023/01/29 19:47:31;;;;;;;;;;;;;;;-1.51;71.34;98889.38;4935082;29;19979;-62
2023/01/29 19:49:56;;;;;;;;;;;;;;;-1.52;71.71;98879.09;4931251;29;20358;-62
2023/01/29 19:52:34;;;;;;;;;;;;;;;-1.51;71.62;98879.09;4935177;29;19963;-62
2023/01/29 19:54:59;;;;;;;;;;;;;;;-1.54;71.38;98873.97;4932229;29;20013;-62
2023/01/29 19:57:25;;;;;;;;;;;;;;;-1.56;71.57;98864.56;4931845;29;20021;-62
2023/01/29 19:59:50;;;;;;;;;;;;;;;-1.63;72.08;98857.75;4932568;29;19979;-62
2023/01/29 20:02:15;;;;;;;;;;;;;;;-1.56;71.96;98869.69;4935236;29;20044;-62
2023/01/29 20:04:41;;;;;;;;;;;;;;;-1.63;72.05;98857.75;4933802;29;20005;-62
2023/01/29 20:07:06;;;;;;;;;;;;;;;-1.62;72.04;98855.16;4933000;29;19919;-62
2023/01/29 20:09:31;;;;;;;;;;;;;;;-1.61;72.20;98856.03;4935182;29;19943;-62
2023/01/29 20:11:57;;;;;;;;;;;;;;;-1.60;72.12;98857.72;4934362;29;19946;-62
2023/01/29 20:14:22;;;;;;;;;;;;;;;-1.68;72.17;98850.94;4932661;29;20286;-62
2023/01/29 20:16:47;;;;;;;;;;;;;;;-1.67;72.13;98850.06;4926478;29;20033;-62
2023/01/29 20:19:13;;;;;;;;;;;;;;;-1.72;72.51;98844.13;4934020;29;19958;-62
2023/01/29 20:21:39;;;;;;;;;;;;;;;-1.73;71.99;98838.97;4932249;29;19922;-63
2023/01/29 20:24:05;;;;;;;;;;;;;;;-1.73;72.50;98836.41;4932242;29;20002;-63
2023/01/29 20:26:30;;;;;;;;;;;;;;;-1.74;72.49;98827.84;4933465;29;20271;-63
2023/01/29 20:28:55;;;;;;;;;;;;;;;-1.73;72.37;98828.69;4936193;29;19919;-63
2023/01/29 20:31:21;;;;;;;;;;;;;;;-1.74;72.33;98838.13;4932316;29;19919;-63
2023/01/29 20:33:46;;;;;;;;;;;;;;;-1.75;72.33;98838.16;4934459;29;19919;-63
2023/01/29 20:36:11;;;;;;;;;;;;;;;-1.78;72.65;98831.31;4935010;29;19915;-63
2023/01/29 20:38:36;;;;;;;;;;;;;;;-1.77;72.49;98835.59;4933194;29;20042;-63
2023/01/29 20:41:02;;;;;;;;;;;;;;;-1.77;72.03;98830.44;4930825;29;19919;-63
2023/01/29 20:43:28;;;;;;;;;;;;;;;-1.79;72.27;98832.19;4937132;29;19918;-63
2023/01/29 20:45:55;;;;;;;;;;;;;;;-1.81;72.34;98831.34;4936565;29;19918;-63
2023/01/29 20:48:20;;;;;;;;;;;;;;;-1.83;72.46;98830.50;4932650;29;19926;-63
2023/01/29 20:50:46;;;;;;;;;;;;;;;-1.84;72.24;98833.94;4934082;29;19915;-63
2023/01/29 20:53:11;;;;;;;;;;;;;;;-1.86;72.52;98830.50;4933764;29;19918;-63
2023/01/29 20:55:36;;;;;;;;;;;;;;;-1.87;72.71;98822.81;4937522;28;19918;-63
2023/01/29 20:58:01;;;;;;;;;;;;;;;-1.90;72.37;98823.69;4932921;28;19935;-63
2023/01/29 21:00:27;;;;;;;;;;;;;;;-1.90;72.85;98821.13;4934801;29;19918;-62
2023/01/29 21:02:52;;;;;;;;;;;;;;;-1.97;73.09;98820.31;4929064;28;19997;-62
2023/01/29 21:05:17;;;;;;;;;;;;;;;-2.00;73.39;98816.94;4933406;28;19919;-62
2023/01/29 21:07:42;;;;;;;;;;;;;;;-1.98;72.94;98820.34;4923854;29;19995;-62
2023/01/29 21:10:08;;;;;;;;;;;;;;;-1.98;72.98;98815.22;4937005;29;19923;-61
2023/01/29 21:12:33;;;;;;;;;;;;;;;-1.98;72.99;98820.34;4936405;29;19925;-62
2023/01/29 21:14:58;;;;;;;;;;;;;;;-1.98;72.81;98820.34;4928311;29;19926;-62
2023/01/29 21:17:24;;;;;;;;;;;;;;;-1.98;73.00;98830.63;4935760;29;19923;-62
2023/01/29 21:19:49;;;;;;;;;;;;;;;-1.99;72.61;98827.22;4944038;29;19930;-63